sensor_id;sensor_type;location;lat;lon;timestamp;temperature;humidity
52513;DHT22;38422;53.172;6.974;2022-12-24T00:01:18;6.60;99.90
52513;DHT22;38422;53.172;6.974;2022-12-24T00:03:44;6.60;99.90
52513;DHT22;38422;53.172;6.974;2022-12-24T00:06:18;6.60;99.90
52513;DHT22;38422;53.172;6.974;2022-12-24T00:08:45;6.60;99.90
52513;DHT22;38422;53.172;6.974;2022-12-24T00:11:10;6.60;99.90
52513;DHT22;38422;53.172;6.974;2022-12-24T00:13:36;6.60;99.90
52513;DHT22;38422;53.172;6.974;2022-12-24T00:16:02;6.60;99.90
52513;DHT22;38422;53.172;6.974;2022-12-24T00:18:28;6.60;99.90
52513;DHT22;38422;53.172;6.974;2022-12-24T00:20:53;6.60;99.90
52513;DHT22;38422;53.172;6.974;2022-12-24T00:23:19;6.60;99.90
52513;DHT22;38422;53.172;6.974;2022-12-24T00:25:46;6.60;99.90
52513;DHT22;38422;53.172;6.974;2022-12-24T00:28:12;6.60;99.90
52513;DHT22;38422;53.172;6.974;2022-12-24T00:30:39;6.70;99.90
52513;DHT22;38422;53.172;6.974;2022-12-24T00:33:05;6.70;99.90
52513;DHT22;38422;53.172;6.974;2022-12-24T00:35:36;6.70;99.90
52513;DHT22;38422;53.172;6.974;2022-12-24T00:38:02;6.70;99.90
52513;DHT22;38422;53.172;6.974;2022-12-24T00:40:29;6.70;99.90
52513;DHT22;38422;53.172;6.974;2022-12-24T00:42:55;6.70;99.90
52513;DHT22;38422;53.172;6.974;2022-12-24T00:45:20;6.70;99.90
52513;DHT22;38422;53.172;6.974;2022-12-24T00:47:46;6.70;99.90
52513;DHT22;38422;53.172;6.974;2022-12-24T00:50:12;6.70;99.90
52513;DHT22;38422;53.172;6.974;2022-12-24T00:52:38;6.70;99.90
52513;DHT22;38422;53.172;6.974;2022-12-24T00:55:03;6.70;99.90
52513;DHT22;38422;53.172;6.974;2022-12-24T00:57:29;6.70;99.90
52513;DHT22;38422;53.172;6.974;2022-12-24T00:59:55;6.70;99.90
52513;DHT22;38422;53.172;6.974;2022-12-24T01:02:21;6.70;99.90
52513;DHT22;38422;53.172;6.974;2022-12-24T01:04:46;6.70;99.90
52513;DHT22;38422;53.172;6.974;2022-12-24T01:07:31;6.70;99.90
52513;DHT22;38422;53.172;6.974;2022-12-24T01:09:56;6.70;99.90
52513;DHT22;38422;53.172;6.974;2022-12-24T01:12:22;6.70;99.90
52513;DHT22;38422;53.172;6.974;2022-12-24T01:14:48;6.70;99.90
52513;DHT22;38422;53.172;6.974;2022-12-24T01:17:14;6.70;99.90
52513;DHT22;38422;53.172;6.974;2022-12-24T01:19:39;6.70;99.90
52513;DHT22;38422;53.172;6.974;2022-12-24T01:22:05;6.70;99.90
52513;DHT22;38422;53.172;6.974;2022-12-24T01:24:31;6.70;99.90
52513;DHT22;38422;53.172;6.974;2022-12-24T01:26:57;6.70;99.90
52513;DHT22;38422;53.172;6.974;2022-12-24T01:29:22;6.70;99.90
52513;DHT22;38422;53.172;6.974;2022-12-24T01:31:48;6.70;99.90
52513;DHT22;38422;53.172;6.974;2022-12-24T01:34:14;6.70;99.90
52513;DHT22;38422;53.172;6.974;2022-12-24T01:36:39;6.70;99.90
52513;DHT22;38422;53.172;6.974;2022-12-24T01:39:05;6.70;99.90
52513;DHT22;38422;53.172;6.974;2022-12-24T01:41:31;6.70;99.90
52513;DHT22;38422;53.172;6.974;2022-12-24T01:44:31;6.70;99.90
52513;DHT22;38422;53.172;6.974;2022-12-24T01:49:41;6.70;99.90
52513;DHT22;38422;53.172;6.974;2022-12-24T01:52:16;6.70;99.90
52513;DHT22;38422;53.172;6.974;2022-12-24T01:54:48;6.70;99.90
52513;DHT22;38422;53.172;6.974;2022-12-24T01:57:17;6.70;99.90
52513;DHT22;38422;53.172;6.974;2022-12-24T01:59:46;6.70;99.90
52513;DHT22;38422;53.172;6.974;2022-12-24T02:02:14;6.70;99.90
52513;DHT22;38422;53.172;6.974;2022-12-24T02:04:58;6.70;99.90
52513;DHT22;38422;53.172;6.974;2022-12-24T02:07:26;6.70;99.90
52513;DHT22;38422;53.172;6.974;2022-12-24T02:09:56;6.70;99.90
52513;DHT22;38422;53.172;6.974;2022-12-24T02:12:22;6.70;99.90
52513;DHT22;38422;53.172;6.974;2022-12-24T02:14:48;6.70;99.90
52513;DHT22;38422;53.172;6.974;2022-12-24T02:17:48;6.70;99.90
52513;DHT22;38422;53.172;6.974;2022-12-24T02:31:52;6.70;99.90
52513;DHT22;38422;53.172;6.974;2022-12-24T02:34:44;6.70;99.90
52513;DHT22;38422;53.172;6.974;2022-12-24T02:37:21;6.70;99.90
52513;DHT22;38422;53.172;6.974;2022-12-24T02:40:07;6.70;99.90
52513;DHT22;38422;53.172;6.974;2022-12-24T02:42:40;6.70;99.90
52513;DHT22;38422;53.172;6.974;2022-12-24T02:45:42;6.70;99.90
52513;DHT22;38422;53.172;6.974;2022-12-24T02:48:11;6.70;99.90
52513;DHT22;38422;53.172;6.974;2022-12-24T02:50:38;6.70;99.90
52513;DHT22;38422;53.172;6.974;2022-12-24T02:53:07;6.70;99.90
52513;DHT22;38422;53.172;6.974;2022-12-24T02:55:51;6.70;99.90
52513;DHT22;38422;53.172;6.974;2022-12-24T03:01:09;6.70;99.90
52513;DHT22;38422;53.172;6.974;2022-12-24T03:06:59;6.70;99.90
52513;DHT22;38422;53.172;6.974;2022-12-24T03:09:38;6.70;99.90
52513;DHT22;38422;53.172;6.974;2022-12-24T03:12:15;6.70;99.90
52513;DHT22;38422;53.172;6.974;2022-12-24T03:14:43;6.70;99.90
52513;DHT22;38422;53.172;6.974;2022-12-24T03:17:09;6.70;99.90
52513;DHT22;38422;53.172;6.974;2022-12-24T03:19:35;6.70;99.90
52513;DHT22;38422;53.172;6.974;2022-12-24T03:22:03;6.70;99.90
52513;DHT22;38422;53.172;6.974;2022-12-24T03:24:32;6.70;99.90
52513;DHT22;38422;53.172;6.974;2022-12-24T03:26:58;6.70;99.90
52513;DHT22;38422;53.172;6.974;2022-12-24T03:29:25;6.70;99.90
52513;DHT22;38422;53.172;6.974;2022-12-24T03:31:52;6.70;99.90
52513;DHT22;38422;53.172;6.974;2022-12-24T03:34:23;6.70;99.90
52513;DHT22;38422;53.172;6.974;2022-12-24T03:36:48;6.70;99.90
52513;DHT22;38422;53.172;6.974;2022-12-24T03:39:14;6.70;99.90
52513;DHT22;38422;53.172;6.974;2022-12-24T03:41:40;6.80;99.90
52513;DHT22;38422;53.172;6.974;2022-12-24T03:44:06;6.80;99.90
52513;DHT22;38422;53.172;6.974;2022-12-24T03:46:31;6.80;99.90
52513;DHT22;38422;53.172;6.974;2022-12-24T03:48:57;6.90;99.90
52513;DHT22;38422;53.172;6.974;2022-12-24T03:51:24;6.90;99.90
52513;DHT22;38422;53.172;6.974;2022-12-24T03:53:54;7.00;99.90
52513;DHT22;38422;53.172;6.974;2022-12-24T03:56:20;7.00;99.90
52513;DHT22;38422;53.172;6.974;2022-12-24T03:58:47;7.00;99.90
52513;DHT22;38422;53.172;6.974;2022-12-24T04:01:13;7.10;99.90
52513;DHT22;38422;53.172;6.974;2022-12-24T04:03:39;7.10;99.90
52513;DHT22;38422;53.172;6.974;2022-12-24T04:06:07;7.10;99.90
52513;DHT22;38422;53.172;6.974;2022-12-24T04:08:33;7.20;99.90
52513;DHT22;38422;53.172;6.974;2022-12-24T04:10:59;7.20;99.90
52513;DHT22;38422;53.172;6.974;2022-12-24T04:13:25;7.20;99.90
52513;DHT22;38422;53.172;6.974;2022-12-24T04:16:02;7.30;99.90
52513;DHT22;38422;53.172;6.974;2022-12-24T04:18:28;7.30;99.90
52513;DHT22;38422;53.172;6.974;2022-12-24T04:20:54;7.40;99.90
52513;DHT22;38422;53.172;6.974;2022-12-24T04:23:20;7.40;99.90
52513;DHT22;38422;53.172;6.974;2022-12-24T04:25:46;7.50;99.90
52513;DHT22;38422;53.172;6.974;2022-12-24T04:28:13;7.40;99.90
52513;DHT22;38422;53.172;6.974;2022-12-24T04:30:39;7.50;99.90
52513;DHT22;38422;53.172;6.974;2022-12-24T04:33:05;7.50;99.90
52513;DHT22;38422;53.172;6.974;2022-12-24T04:35:30;7.50;99.90
52513;DHT22;38422;53.172;6.974;2022-12-24T04:37:56;7.50;99.90
52513;DHT22;38422;53.172;6.974;2022-12-24T04:40:22;7.50;99.90
52513;DHT22;38422;53.172;6.974;2022-12-24T04:42:47;7.50;99.90
52513;DHT22;38422;53.172;6.974;2022-12-24T04:45:15;7.50;99.90
52513;DHT22;38422;53.172;6.974;2022-12-24T04:47:41;7.50;99.90
52513;DHT22;38422;53.172;6.974;2022-12-24T04:50:07;7.50;99.90
52513;DHT22;38422;53.172;6.974;2022-12-24T04:52:33;7.50;99.90
52513;DHT22;38422;53.172;6.974;2022-12-24T04:54:59;7.50;99.90
52513;DHT22;38422;53.172;6.974;2022-12-24T04:57:25;7.60;99.90
52513;DHT22;38422;53.172;6.974;2022-12-24T04:59:50;7.60;99.90
52513;DHT22;38422;53.172;6.974;2022-12-24T05:02:16;7.70;99.90
52513;DHT22;38422;53.172;6.974;2022-12-24T05:04:42;7.70;99.90
52513;DHT22;38422;53.172;6.974;2022-12-24T05:07:07;7.70;99.90
52513;DHT22;38422;53.172;6.974;2022-12-24T05:09:33;7.70;99.90
52513;DHT22;38422;53.172;6.974;2022-12-24T05:11:59;7.70;99.90
52513;DHT22;38422;53.172;6.974;2022-12-24T05:14:24;7.70;99.90
52513;DHT22;38422;53.172;6.974;2022-12-24T05:16:50;7.70;99.90
52513;DHT22;38422;53.172;6.974;2022-12-24T05:19:16;7.70;99.90
52513;DHT22;38422;53.172;6.974;2022-12-24T05:21:42;7.80;99.90
52513;DHT22;38422;53.172;6.974;2022-12-24T05:24:10;7.80;99.90
52513;DHT22;38422;53.172;6.974;2022-12-24T05:26:56;7.80;99.90
52513;DHT22;38422;53.172;6.974;2022-12-24T05:29:22;7.70;99.90
52513;DHT22;38422;53.172;6.974;2022-12-24T05:31:48;7.70;99.90
52513;DHT22;38422;53.172;6.974;2022-12-24T05:34:15;7.70;99.90
52513;DHT22;38422;53.172;6.974;2022-12-24T05:36:42;7.70;99.90
52513;DHT22;38422;53.172;6.974;2022-12-24T05:39:13;7.70;99.90
52513;DHT22;38422;53.172;6.974;2022-12-24T05:41:39;7.70;99.90
52513;DHT22;38422;53.172;6.974;2022-12-24T05:44:05;7.70;99.90
52513;DHT22;38422;53.172;6.974;2022-12-24T05:46:30;7.70;99.90
52513;DHT22;38422;53.172;6.974;2022-12-24T05:48:56;7.80;99.90
52513;DHT22;38422;53.172;6.974;2022-12-24T05:51:22;7.80;99.90
52513;DHT22;38422;53.172;6.974;2022-12-24T05:53:49;7.80;99.90
52513;DHT22;38422;53.172;6.974;2022-12-24T05:56:21;7.80;99.90
52513;DHT22;38422;53.172;6.974;2022-12-24T05:58:47;7.80;99.90
52513;DHT22;38422;53.172;6.974;2022-12-24T06:01:13;7.80;99.90
52513;DHT22;38422;53.172;6.974;2022-12-24T06:03:39;7.80;99.90
52513;DHT22;38422;53.172;6.974;2022-12-24T06:06:07;7.80;99.90
52513;DHT22;38422;53.172;6.974;2022-12-24T06:08:34;7.80;99.90
52513;DHT22;38422;53.172;6.974;2022-12-24T06:11:03;7.80;99.90
52513;DHT22;38422;53.172;6.974;2022-12-24T06:13:29;7.80;99.90
52513;DHT22;38422;53.172;6.974;2022-12-24T06:16:01;7.80;99.90
52513;DHT22;38422;53.172;6.974;2022-12-24T06:18:31;7.80;99.90
52513;DHT22;38422;53.172;6.974;2022-12-24T06:20:58;7.80;99.90
52513;DHT22;38422;53.172;6.974;2022-12-24T06:23:24;7.80;99.90
52513;DHT22;38422;53.172;6.974;2022-12-24T06:25:50;7.80;99.90
52513;DHT22;38422;53.172;6.974;2022-12-24T06:28:17;7.80;99.90
52513;DHT22;38422;53.172;6.974;2022-12-24T06:30:47;7.80;99.90
52513;DHT22;38422;53.172;6.974;2022-12-24T06:33:14;7.80;99.90
52513;DHT22;38422;53.172;6.974;2022-12-24T06:35:40;7.80;99.90
52513;DHT22;38422;53.172;6.974;2022-12-24T06:38:06;7.80;99.90
52513;DHT22;38422;53.172;6.974;2022-12-24T06:40:32;7.80;99.90
52513;DHT22;38422;53.172;6.974;2022-12-24T06:42:57;7.80;99.90
52513;DHT22;38422;53.172;6.974;2022-12-24T06:45:23;7.80;99.90
52513;DHT22;38422;53.172;6.974;2022-12-24T06:47:48;7.80;99.90
52513;DHT22;38422;53.172;6.974;2022-12-24T06:50:15;7.80;99.90
52513;DHT22;38422;53.172;6.974;2022-12-24T06:52:41;7.80;99.90
52513;DHT22;38422;53.172;6.974;2022-12-24T06:55:07;7.80;99.90
52513;DHT22;38422;53.172;6.974;2022-12-24T06:57:33;7.80;99.90
52513;DHT22;38422;53.172;6.974;2022-12-24T06:59:59;7.80;99.90
52513;DHT22;38422;53.172;6.974;2022-12-24T07:02:25;7.80;99.90
52513;DHT22;38422;53.172;6.974;2022-12-24T07:04:51;7.80;99.90
52513;DHT22;38422;53.172;6.974;2022-12-24T07:07:16;7.90;99.90
52513;DHT22;38422;53.172;6.974;2022-12-24T07:09:42;7.80;99.90
52513;DHT22;38422;53.172;6.974;2022-12-24T07:12:08;7.80;99.90
52513;DHT22;38422;53.172;6.974;2022-12-24T07:14:34;7.90;99.90
52513;DHT22;38422;53.172;6.974;2022-12-24T07:16:59;7.90;99.90
52513;DHT22;38422;53.172;6.974;2022-12-24T07:19:25;7.90;99.90
52513;DHT22;38422;53.172;6.974;2022-12-24T07:21:51;7.90;99.90
52513;DHT22;38422;53.172;6.974;2022-12-24T07:24:16;7.90;99.90
52513;DHT22;38422;53.172;6.974;2022-12-24T07:26:42;7.90;99.90
52513;DHT22;38422;53.172;6.974;2022-12-24T07:29:08;7.90;99.90
52513;DHT22;38422;53.172;6.974;2022-12-24T07:31:33;7.90;99.90
52513;DHT22;38422;53.172;6.974;2022-12-24T07:33:59;7.90;99.90
52513;DHT22;38422;53.172;6.974;2022-12-24T07:36:25;7.90;99.90
52513;DHT22;38422;53.172;6.974;2022-12-24T07:38:53;7.90;99.90
52513;DHT22;38422;53.172;6.974;2022-12-24T07:41:19;7.90;99.90
52513;DHT22;38422;53.172;6.974;2022-12-24T07:43:45;7.90;99.90
52513;DHT22;38422;53.172;6.974;2022-12-24T07:46:11;7.90;99.90
52513;DHT22;38422;53.172;6.974;2022-12-24T07:48:37;7.90;99.90
52513;DHT22;38422;53.172;6.974;2022-12-24T07:51:03;7.90;99.90
52513;DHT22;38422;53.172;6.974;2022-12-24T07:53:29;7.90;99.90
52513;DHT22;38422;53.172;6.974;2022-12-24T07:55:56;7.90;99.90
52513;DHT22;38422;53.172;6.974;2022-12-24T07:58:22;7.90;99.90
52513;DHT22;38422;53.172;6.974;2022-12-24T08:00:48;7.90;99.90
52513;DHT22;38422;53.172;6.974;2022-12-24T08:03:19;7.90;99.90
52513;DHT22;38422;53.172;6.974;2022-12-24T08:05:45;7.90;99.90
52513;DHT22;38422;53.172;6.974;2022-12-24T08:08:12;7.90;99.90
52513;DHT22;38422;53.172;6.974;2022-12-24T08:10:38;7.90;99.90
52513;DHT22;38422;53.172;6.974;2022-12-24T08:13:04;7.90;99.90
52513;DHT22;38422;53.172;6.974;2022-12-24T08:15:30;7.90;99.90
52513;DHT22;38422;53.172;6.974;2022-12-24T08:17:55;7.80;99.90
52513;DHT22;38422;53.172;6.974;2022-12-24T08:20:21;7.80;99.90
52513;DHT22;38422;53.172;6.974;2022-12-24T08:22:47;7.80;99.90
52513;DHT22;38422;53.172;6.974;2022-12-24T08:25:12;7.70;99.90
52513;DHT22;38422;53.172;6.974;2022-12-24T08:27:38;7.70;99.90
52513;DHT22;38422;53.172;6.974;2022-12-24T08:30:04;7.70;99.90
52513;DHT22;38422;53.172;6.974;2022-12-24T08:32:30;7.70;99.90
52513;DHT22;38422;53.172;6.974;2022-12-24T08:34:56;7.70;99.90
52513;DHT22;38422;53.172;6.974;2022-12-24T08:37:22;7.80;99.90
52513;DHT22;38422;53.172;6.974;2022-12-24T08:39:47;7.80;99.90
52513;DHT22;38422;53.172;6.974;2022-12-24T08:42:13;7.80;99.90
52513;DHT22;38422;53.172;6.974;2022-12-24T08:44:38;7.80;99.90
52513;DHT22;38422;53.172;6.974;2022-12-24T08:47:04;7.80;99.90
52513;DHT22;38422;53.172;6.974;2022-12-24T08:49:30;7.90;99.90
52513;DHT22;38422;53.172;6.974;2022-12-24T08:51:55;7.90;99.90
52513;DHT22;38422;53.172;6.974;2022-12-24T08:54:22;8.00;99.90
52513;DHT22;38422;53.172;6.974;2022-12-24T08:56:49;8.00;99.90
52513;DHT22;38422;53.172;6.974;2022-12-24T08:59:16;8.10;99.90
52513;DHT22;38422;53.172;6.974;2022-12-24T09:01:41;8.10;99.90
52513;DHT22;38422;53.172;6.974;2022-12-24T09:04:07;8.10;99.90
52513;DHT22;38422;53.172;6.974;2022-12-24T09:06:34;8.20;99.90
52513;DHT22;38422;53.172;6.974;2022-12-24T09:09:00;8.20;99.90
52513;DHT22;38422;53.172;6.974;2022-12-24T09:11:26;8.20;99.90
52513;DHT22;38422;53.172;6.974;2022-12-24T09:13:53;8.20;99.90
52513;DHT22;38422;53.172;6.974;2022-12-24T09:16:19;8.20;99.90
52513;DHT22;38422;53.172;6.974;2022-12-24T09:18:44;8.30;99.90
52513;DHT22;38422;53.172;6.974;2022-12-24T09:21:12;8.30;99.90
52513;DHT22;38422;53.172;6.974;2022-12-24T09:23:40;8.30;99.90
52513;DHT22;38422;53.172;6.974;2022-12-24T09:26:14;8.40;99.90
52513;DHT22;38422;53.172;6.974;2022-12-24T09:28:40;8.40;99.90
52513;DHT22;38422;53.172;6.974;2022-12-24T09:31:06;8.40;99.90
52513;DHT22;38422;53.172;6.974;2022-12-24T09:33:36;8.40;99.90
52513;DHT22;38422;53.172;6.974;2022-12-24T09:36:03;8.50;99.90
52513;DHT22;38422;53.172;6.974;2022-12-24T09:38:29;8.40;99.90
52513;DHT22;38422;53.172;6.974;2022-12-24T09:40:55;8.50;99.90
52513;DHT22;38422;53.172;6.974;2022-12-24T09:43:24;8.50;99.90
52513;DHT22;38422;53.172;6.974;2022-12-24T09:48:45;8.60;99.90
52513;DHT22;38422;53.172;6.974;2022-12-24T09:51:20;8.60;99.90
52513;DHT22;38422;53.172;6.974;2022-12-24T09:53:56;8.70;99.90
52513;DHT22;38422;53.172;6.974;2022-12-24T09:56:34;8.70;99.90
52513;DHT22;38422;53.172;6.974;2022-12-24T09:59:03;8.70;99.90
52513;DHT22;38422;53.172;6.974;2022-12-24T10:01:31;8.80;99.90
52513;DHT22;38422;53.172;6.974;2022-12-24T10:04:03;8.70;99.90
52513;DHT22;38422;53.172;6.974;2022-12-24T10:07:21;8.70;99.90
52513;DHT22;38422;53.172;6.974;2022-12-24T10:09:39;8.70;99.90
52513;DHT22;38422;53.172;6.974;2022-12-24T10:23:22;8.80;99.90
52513;DHT22;38422;53.172;6.974;2022-12-24T10:31:27;8.80;99.90
52513;DHT22;38422;53.172;6.974;2022-12-24T10:33:56;8.90;99.90
52513;DHT22;38422;53.172;6.974;2022-12-24T10:36:27;9.00;99.90
52513;DHT22;38422;53.172;6.974;2022-12-24T10:38:53;9.00;99.90
52513;DHT22;38422;53.172;6.974;2022-12-24T10:41:19;9.00;99.90
52513;DHT22;38422;53.172;6.974;2022-12-24T10:43:46;9.10;99.90
52513;DHT22;38422;53.172;6.974;2022-12-24T10:48:52;9.20;99.90
52513;DHT22;38422;53.172;6.974;2022-12-24T10:54:22;9.30;99.90
52513;DHT22;38422;53.172;6.974;2022-12-24T10:56:50;9.30;99.90
52513;DHT22;38422;53.172;6.974;2022-12-24T10:59:36;9.30;99.90
52513;DHT22;38422;53.172;6.974;2022-12-24T11:04:49;9.30;99.90
52513;DHT22;38422;53.172;6.974;2022-12-24T11:07:21;9.30;99.90
52513;DHT22;38422;53.172;6.974;2022-12-24T11:10:00;9.40;99.90
52513;DHT22;38422;53.172;6.974;2022-12-24T11:12:29;9.40;99.90
52513;DHT22;38422;53.172;6.974;2022-12-24T11:15:05;9.50;99.90
52513;DHT22;38422;53.172;6.974;2022-12-24T11:17:32;9.40;99.90
52513;DHT22;38422;53.172;6.974;2022-12-24T11:19:58;9.50;99.90
52513;DHT22;38422;53.172;6.974;2022-12-24T11:22:27;9.60;99.90
52513;DHT22;38422;53.172;6.974;2022-12-24T11:25:01;9.70;99.90
52513;DHT22;38422;53.172;6.974;2022-12-24T11:27:43;9.70;99.90
52513;DHT22;38422;53.172;6.974;2022-12-24T11:32:50;9.70;99.90
52513;DHT22;38422;53.172;6.974;2022-12-24T11:35:44;9.70;99.90
52513;DHT22;38422;53.172;6.974;2022-12-24T11:38:14;9.80;99.90
52513;DHT22;38422;53.172;6.974;2022-12-24T11:40:44;9.80;99.90
52513;DHT22;38422;53.172;6.974;2022-12-24T11:43:18;9.80;99.90
52513;DHT22;38422;53.172;6.974;2022-12-24T11:45:55;9.70;99.90
52513;DHT22;38422;53.172;6.974;2022-12-24T11:48:25;9.70;99.90
52513;DHT22;38422;53.172;6.974;2022-12-24T11:50:56;9.70;99.90
52513;DHT22;38422;53.172;6.974;2022-12-24T11:53:26;9.70;99.90
52513;DHT22;38422;53.172;6.974;2022-12-24T11:55:56;9.70;99.90
52513;DHT22;38422;53.172;6.974;2022-12-24T11:58:44;9.70;99.90
52513;DHT22;38422;53.172;6.974;2022-12-24T12:03:47;9.60;99.90
52513;DHT22;38422;53.172;6.974;2022-12-24T12:06:27;9.60;99.90
52513;DHT22;38422;53.172;6.974;2022-12-24T12:08:59;9.60;99.90
52513;DHT22;38422;53.172;6.974;2022-12-24T12:11:27;9.60;99.90
52513;DHT22;38422;53.172;6.974;2022-12-24T12:13:55;9.50;99.90
52513;DHT22;38422;53.172;6.974;2022-12-24T12:16:44;9.50;99.90
52513;DHT22;38422;53.172;6.974;2022-12-24T12:19:46;9.50;99.90
52513;DHT22;38422;53.172;6.974;2022-12-24T12:24:51;9.40;99.90
52513;DHT22;38422;53.172;6.974;2022-12-24T12:30:08;9.30;99.90
52513;DHT22;38422;53.172;6.974;2022-12-24T12:35:17;9.30;99.90
52513;DHT22;38422;53.172;6.974;2022-12-24T12:38:01;9.30;99.90
52513;DHT22;38422;53.172;6.974;2022-12-24T12:43:22;9.30;99.90
52513;DHT22;38422;53.172;6.974;2022-12-24T12:45:57;9.30;99.90
52513;DHT22;38422;53.172;6.974;2022-12-24T12:51:10;9.30;99.90
52513;DHT22;38422;53.172;6.974;2022-12-24T12:53:47;9.30;99.90
52513;DHT22;38422;53.172;6.974;2022-12-24T12:59:08;9.30;99.90
52513;DHT22;38422;53.172;6.974;2022-12-24T13:04:53;9.30;99.90
52513;DHT22;38422;53.172;6.974;2022-12-24T13:12:58;9.30;99.90
52513;DHT22;38422;53.172;6.974;2022-12-24T13:20:49;9.40;99.90
52513;DHT22;38422;53.172;6.974;2022-12-24T13:23:24;9.40;99.90
52513;DHT22;38422;53.172;6.974;2022-12-24T13:25:53;9.50;99.90
52513;DHT22;38422;53.172;6.974;2022-12-24T13:30:52;9.50;99.90
52513;DHT22;38422;53.172;6.974;2022-12-24T13:36:04;9.50;99.90
52513;DHT22;38422;53.172;6.974;2022-12-24T13:49:42;9.40;99.90
52513;DHT22;38422;53.172;6.974;2022-12-24T13:55:11;9.30;99.90
52513;DHT22;38422;53.172;6.974;2022-12-24T13:57:39;9.30;99.90
52513;DHT22;38422;53.172;6.974;2022-12-24T14:07:57;9.20;99.90
52513;DHT22;38422;53.172;6.974;2022-12-24T14:10:28;9.20;99.90
52513;DHT22;38422;53.172;6.974;2022-12-24T14:12:55;9.10;99.90
52513;DHT22;38422;53.172;6.974;2022-12-24T14:18:21;9.10;99.90
52513;DHT22;38422;53.172;6.974;2022-12-24T14:20:50;9.10;99.90
52513;DHT22;38422;53.172;6.974;2022-12-24T14:25:57;9.10;99.90
52513;DHT22;38422;53.172;6.974;2022-12-24T14:28:33;9.10;99.90
52513;DHT22;38422;53.172;6.974;2022-12-24T14:31:01;9.10;99.90
52513;DHT22;38422;53.172;6.974;2022-12-24T14:33:28;9.10;99.90
52513;DHT22;38422;53.172;6.974;2022-12-24T14:35:54;9.10;99.90
52513;DHT22;38422;53.172;6.974;2022-12-24T14:38:21;9.00;99.90
52513;DHT22;38422;53.172;6.974;2022-12-24T14:54:42;9.00;99.90
52513;DHT22;38422;53.172;6.974;2022-12-24T15:02:46;9.00;99.90
52513;DHT22;38422;53.172;6.974;2022-12-24T15:05:26;9.00;99.90
52513;DHT22;38422;53.172;6.974;2022-12-24T15:07:57;9.00;99.90
52513;DHT22;38422;53.172;6.974;2022-12-24T15:10:36;9.00;99.90
52513;DHT22;38422;53.172;6.974;2022-12-24T15:13:06;9.00;99.90
52513;DHT22;38422;53.172;6.974;2022-12-24T15:15:34;8.90;99.90
52513;DHT22;38422;53.172;6.974;2022-12-24T15:18:01;8.90;99.90
52513;DHT22;38422;53.172;6.974;2022-12-24T15:20:28;8.90;99.90
52513;DHT22;38422;53.172;6.974;2022-12-24T15:22:56;8.90;99.90
52513;DHT22;38422;53.172;6.974;2022-12-24T15:25:26;8.90;99.90
52513;DHT22;38422;53.172;6.974;2022-12-24T15:27:53;8.90;99.90
52513;DHT22;38422;53.172;6.974;2022-12-24T15:30:22;8.90;99.90
52513;DHT22;38422;53.172;6.974;2022-12-24T15:32:56;8.90;99.90
52513;DHT22;38422;53.172;6.974;2022-12-24T15:37:57;8.80;99.90
52513;DHT22;38422;53.172;6.974;2022-12-24T15:40:24;8.80;99.90
52513;DHT22;38422;53.172;6.974;2022-12-24T15:42:50;8.80;99.90
52513;DHT22;38422;53.172;6.974;2022-12-24T15:45:22;8.70;99.90
52513;DHT22;38422;53.172;6.974;2022-12-24T15:47:57;8.70;99.90
52513;DHT22;38422;53.172;6.974;2022-12-24T15:50:33;8.60;99.90
52513;DHT22;38422;53.172;6.974;2022-12-24T15:53:04;8.60;99.90
52513;DHT22;38422;53.172;6.974;2022-12-24T15:55:39;8.50;99.90
52513;DHT22;38422;53.172;6.974;2022-12-24T16:03:39;8.40;99.90
52513;DHT22;38422;53.172;6.974;2022-12-24T16:06:07;8.30;99.90
52513;DHT22;38422;53.172;6.974;2022-12-24T16:08:35;8.30;99.90
52513;DHT22;38422;53.172;6.974;2022-12-24T16:13:40;8.20;99.90
52513;DHT22;38422;53.172;6.974;2022-12-24T16:16:14;8.10;99.90
52513;DHT22;38422;53.172;6.974;2022-12-24T16:18:56;8.10;99.90
52513;DHT22;38422;53.172;6.974;2022-12-24T16:21:25;8.00;99.90
52513;DHT22;38422;53.172;6.974;2022-12-24T16:23:55;8.00;99.90
52513;DHT22;38422;53.172;6.974;2022-12-24T16:26:21;7.90;99.90
52513;DHT22;38422;53.172;6.974;2022-12-24T16:28:47;7.90;99.90
52513;DHT22;38422;53.172;6.974;2022-12-24T16:31:18;7.80;99.90
52513;DHT22;38422;53.172;6.974;2022-12-24T16:33:52;7.80;99.90
52513;DHT22;38422;53.172;6.974;2022-12-24T16:36:19;7.70;99.90
52513;DHT22;38422;53.172;6.974;2022-12-24T16:38:44;7.70;99.90
52513;DHT22;38422;53.172;6.974;2022-12-24T16:41:28;7.60;99.90
52513;DHT22;38422;53.172;6.974;2022-12-24T16:43:54;7.60;99.90
52513;DHT22;38422;53.172;6.974;2022-12-24T16:46:20;7.60;99.90
52513;DHT22;38422;53.172;6.974;2022-12-24T16:48:47;7.50;99.90
52513;DHT22;38422;53.172;6.974;2022-12-24T16:51:13;7.50;99.90
52513;DHT22;38422;53.172;6.974;2022-12-24T16:53:39;7.50;99.90
52513;DHT22;38422;53.172;6.974;2022-12-24T16:56:05;7.40;99.90
52513;DHT22;38422;53.172;6.974;2022-12-24T16:58:31;7.40;99.90
52513;DHT22;38422;53.172;6.974;2022-12-24T17:00:57;7.40;99.90
52513;DHT22;38422;53.172;6.974;2022-12-24T17:03:24;7.30;99.90
52513;DHT22;38422;53.172;6.974;2022-12-24T17:05:49;7.30;99.90
52513;DHT22;38422;53.172;6.974;2022-12-24T17:08:15;7.30;99.90
52513;DHT22;38422;53.172;6.974;2022-12-24T17:10:49;7.30;99.90
52513;DHT22;38422;53.172;6.974;2022-12-24T17:13:15;7.30;99.90
52513;DHT22;38422;53.172;6.974;2022-12-24T17:15:41;7.30;99.90
52513;DHT22;38422;53.172;6.974;2022-12-24T17:18:06;7.20;99.90
52513;DHT22;38422;53.172;6.974;2022-12-24T17:20:32;7.20;99.90
52513;DHT22;38422;53.172;6.974;2022-12-24T17:22:58;7.20;99.90
52513;DHT22;38422;53.172;6.974;2022-12-24T17:25:23;7.20;99.90
52513;DHT22;38422;53.172;6.974;2022-12-24T17:27:49;7.20;99.90
52513;DHT22;38422;53.172;6.974;2022-12-24T17:30:15;7.20;99.90
52513;DHT22;38422;53.172;6.974;2022-12-24T17:32:41;7.30;99.90
52513;DHT22;38422;53.172;6.974;2022-12-24T17:35:07;7.20;99.90
52513;DHT22;38422;53.172;6.974;2022-12-24T17:37:33;7.20;99.90
52513;DHT22;38422;53.172;6.974;2022-12-24T17:39:59;7.20;99.90
52513;DHT22;38422;53.172;6.974;2022-12-24T17:42:24;7.20;99.90
52513;DHT22;38422;53.172;6.974;2022-12-24T17:44:51;7.20;99.90
52513;DHT22;38422;53.172;6.974;2022-12-24T17:47:17;7.20;99.90
52513;DHT22;38422;53.172;6.974;2022-12-24T17:49:43;7.20;99.90
52513;DHT22;38422;53.172;6.974;2022-12-24T17:52:08;7.20;99.90
52513;DHT22;38422;53.172;6.974;2022-12-24T17:54:34;7.20;99.90
52513;DHT22;38422;53.172;6.974;2022-12-24T17:57:00;7.20;99.90
52513;DHT22;38422;53.172;6.974;2022-12-24T17:59:26;7.10;99.90
52513;DHT22;38422;53.172;6.974;2022-12-24T18:01:52;7.10;99.90
52513;DHT22;38422;53.172;6.974;2022-12-24T18:04:17;7.10;99.90
52513;DHT22;38422;53.172;6.974;2022-12-24T18:06:43;7.10;99.90
52513;DHT22;38422;53.172;6.974;2022-12-24T18:09:09;7.10;99.90
52513;DHT22;38422;53.172;6.974;2022-12-24T18:11:36;7.10;99.90
52513;DHT22;38422;53.172;6.974;2022-12-24T18:14:03;7.10;99.90
52513;DHT22;38422;53.172;6.974;2022-12-24T18:16:35;7.10;99.90
52513;DHT22;38422;53.172;6.974;2022-12-24T18:19:02;7.10;99.90
52513;DHT22;38422;53.172;6.974;2022-12-24T18:21:30;7.10;99.90